sensor_id;sensor_type;location;lat;lon;timestamp;P1;durP1;ratioP1;P2;durP2;ratioP2
18200;SDS011;9226;47.858;9.594;2024-02-16T00:01:02;10.87;;;6.23;;
18200;SDS011;9226;47.858;9.594;2024-02-16T00:03:28;12.73;;;5.63;;
18200;SDS011;9226;47.858;9.594;2024-02-16T00:05:53;11.47;;;6.33;;
18200;SDS011;9226;47.858;9.594;2024-02-16T00:08:19;15.50;;;5.83;;
18200;SDS011;9226;47.858;9.594;2024-02-16T00:10:45;12.83;;;6.60;;
18200;SDS011;9226;47.858;9.594;2024-02-16T00:13:12;10.50;;;6.23;;
18200;SDS011;9226;47.858;9.594;2024-02-16T00:15:37;12.73;;;5.80;;
18200;SDS011;9226;47.858;9.594;2024-02-16T00:18:04;12.47;;;6.00;;
18200;SDS011;9226;47.858;9.594;2024-02-16T00:20:29;11.03;;;5.97;;
18200;SDS011;9226;47.858;9.594;2024-02-16T00:22:56;11.97;;;5.90;;
18200;SDS011;9226;47.858;9.594;2024-02-16T00:25:22;12.77;;;5.70;;
18200;SDS011;9226;47.858;9.594;2024-02-16T00:27:47;9.77;;;5.60;;
18200;SDS011;9226;47.858;9.594;2024-02-16T00:30:13;13.33;;;6.00;;
18200;SDS011;9226;47.858;9.594;2024-02-16T00:32:38;9.03;;;5.00;;
18200;SDS011;9226;47.858;9.594;2024-02-16T00:35:04;13.20;;;5.93;;
18200;SDS011;9226;47.858;9.594;2024-02-16T00:37:29;13.80;;;5.87;;
18200;SDS011;9226;47.858;9.594;2024-02-16T00:39:54;11.23;;;5.77;;
18200;SDS011;9226;47.858;9.594;2024-02-16T00:42:20;11.37;;;5.80;;
18200;SDS011;9226;47.858;9.594;2024-02-16T00:44:48;14.90;;;5.87;;
18200;SDS011;9226;47.858;9.594;2024-02-16T00:47:14;10.40;;;6.10;;
18200;SDS011;9226;47.858;9.594;2024-02-16T00:49:41;12.13;;;6.03;;
18200;SDS011;9226;47.858;9.594;2024-02-16T00:52:07;14.17;;;6.53;;
18200;SDS011;9226;47.858;9.594;2024-02-16T00:54:32;13.73;;;7.20;;
18200;SDS011;9226;47.858;9.594;2024-02-16T00:56:57;16.90;;;7.43;;
18200;SDS011;9226;47.858;9.594;2024-02-16T00:59:27;13.33;;;6.97;;
18200;SDS011;9226;47.858;9.594;2024-02-16T01:01:52;11.10;;;6.33;;
18200;SDS011;9226;47.858;9.594;2024-02-16T01:04:18;16.23;;;6.63;;
18200;SDS011;9226;47.858;9.594;2024-02-16T01:06:43;16.90;;;7.33;;
18200;SDS011;9226;47.858;9.594;2024-02-16T01:09:08;14.23;;;7.40;;
18200;SDS011;9226;47.858;9.594;2024-02-16T01:11:34;16.43;;;6.70;;
18200;SDS011;9226;47.858;9.594;2024-02-16T01:13:59;13.70;;;6.87;;
18200;SDS011;9226;47.858;9.594;2024-02-16T01:16:25;13.00;;;7.23;;
18200;SDS011;9226;47.858;9.594;2024-02-16T01:18:50;12.20;;;6.60;;
18200;SDS011;9226;47.858;9.594;2024-02-16T01:21:15;18.40;;;7.00;;
18200;SDS011;9226;47.858;9.594;2024-02-16T01:23:41;13.50;;;7.00;;
18200;SDS011;9226;47.858;9.594;2024-02-16T01:26:06;19.10;;;7.40;;
18200;SDS011;9226;47.858;9.594;2024-02-16T01:28:32;18.10;;;6.80;;
18200;SDS011;9226;47.858;9.594;2024-02-16T01:30:57;14.53;;;7.20;;
18200;SDS011;9226;47.858;9.594;2024-02-16T01:33:22;13.63;;;7.10;;
18200;SDS011;9226;47.858;9.594;2024-02-16T01:35:48;13.43;;;6.70;;
18200;SDS011;9226;47.858;9.594;2024-02-16T01:38:13;14.13;;;6.77;;
18200;SDS011;9226;47.858;9.594;2024-02-16T01:40:39;13.73;;;6.83;;
18200;SDS011;9226;47.858;9.594;2024-02-16T01:43:04;12.60;;;6.73;;
18200;SDS011;9226;47.858;9.594;2024-02-16T01:45:30;12.43;;;6.17;;
18200;SDS011;9226;47.858;9.594;2024-02-16T01:47:55;11.23;;;6.33;;
18200;SDS011;9226;47.858;9.594;2024-02-16T01:50:21;16.00;;;7.13;;
18200;SDS011;9226;47.858;9.594;2024-02-16T01:52:48;14.53;;;6.83;;
18200;SDS011;9226;47.858;9.594;2024-02-16T01:55:14;14.13;;;7.23;;
18200;SDS011;9226;47.858;9.594;2024-02-16T01:57:44;14.73;;;6.60;;
18200;SDS011;9226;47.858;9.594;2024-02-16T02:00:11;14.87;;;6.73;;
18200;SDS011;9226;47.858;9.594;2024-02-16T02:02:37;12.30;;;6.23;;
18200;SDS011;9226;47.858;9.594;2024-02-16T02:05:03;12.47;;;6.13;;
18200;SDS011;9226;47.858;9.594;2024-02-16T02:07:29;10.17;;;5.93;;
18200;SDS011;9226;47.858;9.594;2024-02-16T02:09:55;11.87;;;6.80;;
18200;SDS011;9226;47.858;9.594;2024-02-16T02:12:21;10.97;;;6.07;;
18200;SDS011;9226;47.858;9.594;2024-02-16T02:14:47;10.50;;;6.03;;
18200;SDS011;9226;47.858;9.594;2024-02-16T02:17:13;11.23;;;6.80;;
18200;SDS011;9226;47.858;9.594;2024-02-16T02:19:38;13.33;;;6.57;;
18200;SDS011;9226;47.858;9.594;2024-02-16T02:22:04;13.07;;;6.57;;
18200;SDS011;9226;47.858;9.594;2024-02-16T02:24:29;11.53;;;6.47;;
18200;SDS011;9226;47.858;9.594;2024-02-16T02:26:55;15.03;;;7.07;;
18200;SDS011;9226;47.858;9.594;2024-02-16T02:29:22;12.37;;;6.13;;
18200;SDS011;9226;47.858;9.594;2024-02-16T02:31:47;10.63;;;6.30;;
18200;SDS011;9226;47.858;9.594;2024-02-16T02:34:13;13.07;;;6.70;;
18200;SDS011;9226;47.858;9.594;2024-02-16T02:36:39;12.43;;;6.60;;
18200;SDS011;9226;47.858;9.594;2024-02-16T02:39:05;13.37;;;6.50;;
18200;SDS011;9226;47.858;9.594;2024-02-16T02:41:31;12.03;;;6.20;;
18200;SDS011;9226;47.858;9.594;2024-02-16T02:43:57;13.47;;;6.93;;
18200;SDS011;9226;47.858;9.594;2024-02-16T02:46:23;18.80;;;7.97;;
18200;SDS011;9226;47.858;9.594;2024-02-16T02:48:50;18.97;;;8.10;;
18200;SDS011;9226;47.858;9.594;2024-02-16T02:51:16;15.60;;;7.50;;
18200;SDS011;9226;47.858;9.594;2024-02-16T02:53:41;12.50;;;6.63;;
18200;SDS011;9226;47.858;9.594;2024-02-16T02:56:07;14.03;;;7.07;;
18200;SDS011;9226;47.858;9.594;2024-02-16T02:58:32;21.30;;;7.27;;
18200;SDS011;9226;47.858;9.594;2024-02-16T03:00:58;14.30;;;6.47;;
18200;SDS011;9226;47.858;9.594;2024-02-16T03:03:23;15.33;;;7.10;;
18200;SDS011;9226;47.858;9.594;2024-02-16T03:05:49;17.47;;;7.77;;
18200;SDS011;9226;47.858;9.594;2024-02-16T03:08:15;14.50;;;7.13;;
18200;SDS011;9226;47.858;9.594;2024-02-16T03:10:40;13.50;;;6.90;;
18200;SDS011;9226;47.858;9.594;2024-02-16T03:13:05;19.57;;;7.53;;
18200;SDS011;9226;47.858;9.594;2024-02-16T03:15:34;18.90;;;8.17;;
18200;SDS011;9226;47.858;9.594;2024-02-16T03:18:03;15.73;;;8.03;;
18200;SDS011;9226;47.858;9.594;2024-02-16T03:20:30;19.03;;;8.00;;
18200;SDS011;9226;47.858;9.594;2024-02-16T03:22:55;14.43;;;7.60;;
18200;SDS011;9226;47.858;9.594;2024-02-16T03:25:21;15.43;;;7.83;;
18200;SDS011;9226;47.858;9.594;2024-02-16T03:27:46;14.07;;;7.37;;
18200;SDS011;9226;47.858;9.594;2024-02-16T03:30:11;17.00;;;7.60;;
18200;SDS011;9226;47.858;9.594;2024-02-16T03:32:37;15.77;;;7.17;;
18200;SDS011;9226;47.858;9.594;2024-02-16T03:35:02;15.47;;;7.87;;
18200;SDS011;9226;47.858;9.594;2024-02-16T03:37:29;12.90;;;8.13;;
18200;SDS011;9226;47.858;9.594;2024-02-16T03:39:54;15.30;;;8.20;;
18200;SDS011;9226;47.858;9.594;2024-02-16T03:42:20;14.57;;;7.57;;
18200;SDS011;9226;47.858;9.594;2024-02-16T03:44:45;18.37;;;7.87;;
18200;SDS011;9226;47.858;9.594;2024-02-16T03:47:11;19.20;;;8.13;;
18200;SDS011;9226;47.858;9.594;2024-02-16T03:49:37;16.90;;;8.17;;
18200;SDS011;9226;47.858;9.594;2024-02-16T03:52:04;20.57;;;8.67;;
18200;SDS011;9226;47.858;9.594;2024-02-16T03:54:29;19.27;;;8.90;;
18200;SDS011;9226;47.858;9.594;2024-02-16T03:56:55;16.07;;;8.27;;
18200;SDS011;9226;47.858;9.594;2024-02-16T03:59:20;19.47;;;8.93;;
18200;SDS011;9226;47.858;9.594;2024-02-16T04:01:46;15.23;;;8.53;;
18200;SDS011;9226;47.858;9.594;2024-02-16T04:04:11;18.37;;;9.27;;
18200;SDS011;9226;47.858;9.594;2024-02-16T04:06:37;20.50;;;8.30;;
18200;SDS011;9226;47.858;9.594;2024-02-16T04:09:03;17.83;;;8.63;;
18200;SDS011;9226;47.858;9.594;2024-02-16T04:11:31;20.53;;;9.73;;
18200;SDS011;9226;47.858;9.594;2024-02-16T04:13:57;18.90;;;8.10;;
18200;SDS011;9226;47.858;9.594;2024-02-16T04:16:22;17.23;;;8.10;;
18200;SDS011;9226;47.858;9.594;2024-02-16T04:18:49;21.37;;;7.93;;
18200;SDS011;9226;47.858;9.594;2024-02-16T04:21:15;19.17;;;8.53;;
18200;SDS011;9226;47.858;9.594;2024-02-16T04:23:40;14.17;;;7.87;;
18200;SDS011;9226;47.858;9.594;2024-02-16T04:26:05;14.97;;;7.47;;
18200;SDS011;9226;47.858;9.594;2024-02-16T04:28:31;17.80;;;8.10;;
18200;SDS011;9226;47.858;9.594;2024-02-16T04:30:57;18.03;;;8.77;;
18200;SDS011;9226;47.858;9.594;2024-02-16T04:33:22;15.87;;;8.40;;
18200;SDS011;9226;47.858;9.594;2024-02-16T04:35:48;21.13;;;8.90;;
18200;SDS011;9226;47.858;9.594;2024-02-16T04:38:15;18.40;;;9.13;;
18200;SDS011;9226;47.858;9.594;2024-02-16T04:40:40;17.27;;;9.00;;
18200;SDS011;9226;47.858;9.594;2024-02-16T04:43:06;19.00;;;8.33;;
18200;SDS011;9226;47.858;9.594;2024-02-16T04:45:31;18.83;;;8.50;;
18200;SDS011;9226;47.858;9.594;2024-02-16T04:47:56;20.07;;;9.30;;
18200;SDS011;9226;47.858;9.594;2024-02-16T04:50:22;18.73;;;8.70;;
18200;SDS011;9226;47.858;9.594;2024-02-16T04:52:47;17.57;;;8.00;;
18200;SDS011;9226;47.858;9.594;2024-02-16T04:55:13;16.13;;;8.23;;
18200;SDS011;9226;47.858;9.594;2024-02-16T04:57:38;16.67;;;8.53;;
18200;SDS011;9226;47.858;9.594;2024-02-16T05:00:03;21.90;;;9.13;;
18200;SDS011;9226;47.858;9.594;2024-02-16T05:02:29;20.47;;;8.77;;
18200;SDS011;9226;47.858;9.594;2024-02-16T05:04:55;18.57;;;8.63;;
18200;SDS011;9226;47.858;9.594;2024-02-16T05:07:20;21.00;;;9.43;;
18200;SDS011;9226;47.858;9.594;2024-02-16T05:09:46;26.93;;;9.40;;
18200;SDS011;9226;47.858;9.594;2024-02-16T05:12:11;19.03;;;8.77;;
18200;SDS011;9226;47.858;9.594;2024-02-16T05:14:36;18.10;;;8.87;;
18200;SDS011;9226;47.858;9.594;2024-02-16T05:17:02;19.00;;;9.40;;
18200;SDS011;9226;47.858;9.594;2024-02-16T05:19:27;17.43;;;9.30;;
18200;SDS011;9226;47.858;9.594;2024-02-16T05:21:53;20.13;;;9.07;;
18200;SDS011;9226;47.858;9.594;2024-02-16T05:24:18;20.20;;;8.97;;
18200;SDS011;9226;47.858;9.594;2024-02-16T05:26:43;19.67;;;9.60;;
18200;SDS011;9226;47.858;9.594;2024-02-16T05:29:10;19.63;;;9.50;;
18200;SDS011;9226;47.858;9.594;2024-02-16T05:31:35;24.90;;;10.23;;
18200;SDS011;9226;47.858;9.594;2024-02-16T05:34:01;18.83;;;9.40;;
18200;SDS011;9226;47.858;9.594;2024-02-16T05:36:26;15.80;;;8.57;;
18200;SDS011;9226;47.858;9.594;2024-02-16T05:38:55;22.17;;;9.27;;
18200;SDS011;9226;47.858;9.594;2024-02-16T05:41:21;20.13;;;9.23;;
18200;SDS011;9226;47.858;9.594;2024-02-16T05:43:47;18.50;;;9.60;;
18200;SDS011;9226;47.858;9.594;2024-02-16T05:46:17;20.87;;;9.43;;
18200;SDS011;9226;47.858;9.594;2024-02-16T05:48:43;22.30;;;9.80;;
18200;SDS011;9226;47.858;9.594;2024-02-16T05:51:10;22.20;;;10.03;;
18200;SDS011;9226;47.858;9.594;2024-02-16T05:53:37;21.10;;;10.10;;
18200;SDS011;9226;47.858;9.594;2024-02-16T05:56:04;24.07;;;9.13;;
18200;SDS011;9226;47.858;9.594;2024-02-16T05:58:30;17.33;;;8.97;;
18200;SDS011;9226;47.858;9.594;2024-02-16T06:00:56;19.33;;;9.27;;
18200;SDS011;9226;47.858;9.594;2024-02-16T06:03:22;18.17;;;8.97;;
18200;SDS011;9226;47.858;9.594;2024-02-16T06:05:48;23.50;;;9.77;;
18200;SDS011;9226;47.858;9.594;2024-02-16T06:08:13;23.07;;;9.70;;
18200;SDS011;9226;47.858;9.594;2024-02-16T06:10:42;19.50;;;9.77;;
18200;SDS011;9226;47.858;9.594;2024-02-16T06:13:08;18.63;;;9.53;;
18200;SDS011;9226;47.858;9.594;2024-02-16T06:15:33;19.73;;;9.40;;
18200;SDS011;9226;47.858;9.594;2024-02-16T06:18:02;18.97;;;9.83;;
18200;SDS011;9226;47.858;9.594;2024-02-16T06:20:27;19.73;;;9.53;;
18200;SDS011;9226;47.858;9.594;2024-02-16T06:22:53;20.93;;;10.20;;
18200;SDS011;9226;47.858;9.594;2024-02-16T06:25:18;20.43;;;9.43;;
18200;SDS011;9226;47.858;9.594;2024-02-16T06:27:46;18.70;;;9.07;;
18200;SDS011;9226;47.858;9.594;2024-02-16T06:30:12;17.10;;;8.50;;
18200;SDS011;9226;47.858;9.594;2024-02-16T06:32:40;21.47;;;9.63;;
18200;SDS011;9226;47.858;9.594;2024-02-16T06:35:06;19.53;;;8.67;;
18200;SDS011;9226;47.858;9.594;2024-02-16T06:37:32;17.00;;;8.87;;
18200;SDS011;9226;47.858;9.594;2024-02-16T06:39:58;25.13;;;10.13;;
18200;SDS011;9226;47.858;9.594;2024-02-16T06:42:23;21.37;;;9.33;;
18200;SDS011;9226;47.858;9.594;2024-02-16T06:44:49;17.53;;;9.07;;
18200;SDS011;9226;47.858;9.594;2024-02-16T06:47:15;17.83;;;8.50;;
18200;SDS011;9226;47.858;9.594;2024-02-16T06:49:40;17.10;;;8.43;;
18200;SDS011;9226;47.858;9.594;2024-02-16T06:52:06;18.47;;;8.47;;
18200;SDS011;9226;47.858;9.594;2024-02-16T06:54:31;24.77;;;8.17;;
18200;SDS011;9226;47.858;9.594;2024-02-16T06:56:56;23.07;;;8.23;;
18200;SDS011;9226;47.858;9.594;2024-02-16T06:59:22;16.30;;;7.37;;
18200;SDS011;9226;47.858;9.594;2024-02-16T07:01:47;21.07;;;7.57;;
18200;SDS011;9226;47.858;9.594;2024-02-16T07:04:12;31.87;;;8.17;;
18200;SDS011;9226;47.858;9.594;2024-02-16T07:06:38;20.60;;;8.10;;
18200;SDS011;9226;47.858;9.594;2024-02-16T07:09:03;31.77;;;8.10;;
18200;SDS011;9226;47.858;9.594;2024-02-16T07:11:28;26.50;;;8.97;;
18200;SDS011;9226;47.858;9.594;2024-02-16T07:13:54;24.50;;;8.33;;
18200;SDS011;9226;47.858;9.594;2024-02-16T07:16:19;21.80;;;8.30;;
18200;SDS011;9226;47.858;9.594;2024-02-16T07:18:45;25.30;;;8.77;;
18200;SDS011;9226;47.858;9.594;2024-02-16T07:21:10;50.70;;;10.07;;
18200;SDS011;9226;47.858;9.594;2024-02-16T07:23:36;22.27;;;8.57;;
18200;SDS011;9226;47.858;9.594;2024-02-16T07:26:02;23.47;;;8.77;;
18200;SDS011;9226;47.858;9.594;2024-02-16T07:28:27;19.63;;;7.63;;
18200;SDS011;9226;47.858;9.594;2024-02-16T07:30:53;20.77;;;6.70;;
18200;SDS011;9226;47.858;9.594;2024-02-16T07:33:18;13.17;;;6.57;;
18200;SDS011;9226;47.858;9.594;2024-02-16T07:35:44;14.73;;;6.67;;
18200;SDS011;9226;47.858;9.594;2024-02-16T07:38:09;13.10;;;5.80;;
18200;SDS011;9226;47.858;9.594;2024-02-16T07:40:35;16.47;;;6.13;;
18200;SDS011;9226;47.858;9.594;2024-02-16T07:43:00;18.30;;;5.80;;
18200;SDS011;9226;47.858;9.594;2024-02-16T07:45:26;9.13;;;5.77;;
18200;SDS011;9226;47.858;9.594;2024-02-16T07:47:51;14.93;;;5.80;;
18200;SDS011;9226;47.858;9.594;2024-02-16T07:50:23;17.57;;;6.77;;
18200;SDS011;9226;47.858;9.594;2024-02-16T07:52:49;13.87;;;6.40;;
18200;SDS011;9226;47.858;9.594;2024-02-16T07:55:15;22.50;;;7.10;;
18200;SDS011;9226;47.858;9.594;2024-02-16T07:57:45;24.80;;;7.80;;
18200;SDS011;9226;47.858;9.594;2024-02-16T08:00:10;16.60;;;6.80;;
18200;SDS011;9226;47.858;9.594;2024-02-16T08:02:36;15.70;;;6.77;;
18200;SDS011;9226;47.858;9.594;2024-02-16T08:05:02;13.30;;;6.40;;
18200;SDS011;9226;47.858;9.594;2024-02-16T08:07:27;12.57;;;6.47;;
18200;SDS011;9226;47.858;9.594;2024-02-16T08:09:53;14.13;;;6.50;;
18200;SDS011;9226;47.858;9.594;2024-02-16T08:12:18;12.03;;;6.27;;
18200;SDS011;9226;47.858;9.594;2024-02-16T08:14:44;11.77;;;6.43;;
18200;SDS011;9226;47.858;9.594;2024-02-16T08:17:11;16.20;;;6.93;;
18200;SDS011;9226;47.858;9.594;2024-02-16T08:19:36;10.23;;;6.40;;
18200;SDS011;9226;47.858;9.594;2024-02-16T08:22:03;13.57;;;6.07;;
18200;SDS011;9226;47.858;9.594;2024-02-16T08:24:34;11.87;;;6.30;;
18200;SDS011;9226;47.858;9.594;2024-02-16T08:27:00;12.87;;;6.20;;
18200;SDS011;9226;47.858;9.594;2024-02-16T08:29:25;12.20;;;6.47;;
18200;SDS011;9226;47.858;9.594;2024-02-16T08:31:51;16.07;;;6.47;;
18200;SDS011;9226;47.858;9.594;2024-02-16T08:34:16;11.30;;;6.60;;
18200;SDS011;9226;47.858;9.594;2024-02-16T08:36:48;13.83;;;7.30;;
18200;SDS011;9226;47.858;9.594;2024-02-16T08:39:14;13.63;;;7.10;;
18200;SDS011;9226;47.858;9.594;2024-02-16T08:41:41;14.33;;;7.23;;
18200;SDS011;9226;47.858;9.594;2024-02-16T08:44:06;15.60;;;7.20;;
18200;SDS011;9226;47.858;9.594;2024-02-16T08:46:34;19.07;;;8.17;;
18200;SDS011;9226;47.858;9.594;2024-02-16T08:49:00;18.03;;;7.70;;
18200;SDS011;9226;47.858;9.594;2024-02-16T08:51:25;12.83;;;6.93;;
18200;SDS011;9226;47.858;9.594;2024-02-16T08:53:51;14.83;;;7.47;;
18200;SDS011;9226;47.858;9.594;2024-02-16T08:56:16;17.90;;;7.43;;
18200;SDS011;9226;47.858;9.594;2024-02-16T08:58:41;12.80;;;7.03;;
18200;SDS011;9226;47.858;9.594;2024-02-16T09:01:06;10.73;;;6.80;;
18200;SDS011;9226;47.858;9.594;2024-02-16T09:03:32;14.67;;;6.23;;
18200;SDS011;9226;47.858;9.594;2024-02-16T09:06:02;15.03;;;5.97;;
18200;SDS011;9226;47.858;9.594;2024-02-16T09:08:28;10.83;;;6.43;;
18200;SDS011;9226;47.858;9.594;2024-02-16T09:10:57;10.77;;;6.47;;
18200;SDS011;9226;47.858;9.594;2024-02-16T09:13:23;13.83;;;6.53;;
18200;SDS011;9226;47.858;9.594;2024-02-16T09:15:48;15.13;;;7.30;;
18200;SDS011;9226;47.858;9.594;2024-02-16T09:18:14;11.50;;;5.90;;
18200;SDS011;9226;47.858;9.594;2024-02-16T09:20:39;13.17;;;6.03;;
18200;SDS011;9226;47.858;9.594;2024-02-16T09:23:04;18.73;;;6.57;;
18200;SDS011;9226;47.858;9.594;2024-02-16T09:25:30;11.97;;;6.43;;
18200;SDS011;9226;47.858;9.594;2024-02-16T09:27:55;12.20;;;6.13;;
18200;SDS011;9226;47.858;9.594;2024-02-16T09:30:20;14.33;;;6.50;;
18200;SDS011;9226;47.858;9.594;2024-02-16T09:32:46;17.60;;;6.50;;
18200;SDS011;9226;47.858;9.594;2024-02-16T09:35:12;10.87;;;5.93;;
18200;SDS011;9226;47.858;9.594;2024-02-16T09:37:38;10.03;;;6.10;;
18200;SDS011;9226;47.858;9.594;2024-02-16T09:40:05;9.87;;;6.47;;
18200;SDS011;9226;47.858;9.594;2024-02-16T09:42:31;9.67;;;6.03;;
18200;SDS011;9226;47.858;9.594;2024-02-16T09:45:00;8.40;;;5.97;;
18200;SDS011;9226;47.858;9.594;2024-02-16T09:47:25;9.77;;;6.53;;
18200;SDS011;9226;47.858;9.594;2024-02-16T09:49:55;10.27;;;6.53;;
18200;SDS011;9226;47.858;9.594;2024-02-16T09:52:20;10.83;;;6.97;;
18200;SDS011;9226;47.858;9.594;2024-02-16T09:54:46;16.17;;;7.10;;
18200;SDS011;9226;47.858;9.594;2024-02-16T09:57:12;13.77;;;7.00;;
18200;SDS011;9226;47.858;9.594;2024-02-16T09:59:37;9.73;;;6.40;;
18200;SDS011;9226;47.858;9.594;2024-02-16T10:02:02;12.00;;;7.60;;
18200;SDS011;9226;47.858;9.594;2024-02-16T10:04:28;13.00;;;7.47;;
18200;SDS011;9226;47.858;9.594;2024-02-16T10:06:54;15.27;;;7.20;;
18200;SDS011;9226;47.858;9.594;2024-02-16T10:09:23;14.37;;;7.73;;
18200;SDS011;9226;47.858;9.594;2024-02-16T10:11:49;12.30;;;7.60;;
18200;SDS011;9226;47.858;9.594;2024-02-16T10:14:15;9.87;;;6.80;;
18200;SDS011;9226;47.858;9.594;2024-02-16T10:16:40;11.43;;;7.07;;
18200;SDS011;9226;47.858;9.594;2024-02-16T10:19:06;14.67;;;7.27;;
18200;SDS011;9226;47.858;9.594;2024-02-16T10:21:33;10.93;;;7.33;;
18200;SDS011;9226;47.858;9.594;2024-02-16T10:24:05;16.57;;;7.07;;
18200;SDS011;9226;47.858;9.594;2024-02-16T10:26:33;14.40;;;7.03;;
18200;SDS011;9226;47.858;9.594;2024-02-16T10:29:05;16.87;;;7.53;;
18200;SDS011;9226;47.858;9.594;2024-02-16T10:31:33;12.30;;;7.57;;
18200;SDS011;9226;47.858;9.594;2024-02-16T10:34:00;19.93;;;7.30;;
18200;SDS011;9226;47.858;9.594;2024-02-16T10:36:31;13.77;;;7.33;;
18200;SDS011;9226;47.858;9.594;2024-02-16T10:39:07;13.07;;;7.03;;
18200;SDS011;9226;47.858;9.594;2024-02-16T10:41:34;9.77;;;5.40;;
18200;SDS011;9226;47.858;9.594;2024-02-16T10:44:03;12.43;;;6.43;;
18200;SDS011;9226;47.858;9.594;2024-02-16T10:46:30;9.10;;;5.50;;
18200;SDS011;9226;47.858;9.594;2024-02-16T10:48:56;16.93;;;7.00;;
18200;SDS011;9226;47.858;9.594;2024-02-16T10:51:28;15.00;;;6.67;;
18200;SDS011;9226;47.858;9.594;2024-02-16T10:53:56;11.67;;;5.80;;
18200;SDS011;9226;47.858;9.594;2024-02-16T10:59:01;12.73;;;6.17;;
18200;SDS011;9226;47.858;9.594;2024-02-16T11:01:27;13.47;;;5.80;;
18200;SDS011;9226;47.858;9.594;2024-02-16T11:04:00;8.47;;;5.23;;
18200;SDS011;9226;47.858;9.594;2024-02-16T11:06:27;7.80;;;5.13;;
18200;SDS011;9226;47.858;9.594;2024-02-16T11:08:52;9.10;;;5.63;;
18200;SDS011;9226;47.858;9.594;2024-02-16T11:11:24;10.80;;;5.53;;
18200;SDS011;9226;47.858;9.594;2024-02-16T11:13:49;10.23;;;5.17;;
18200;SDS011;9226;47.858;9.594;2024-02-16T11:16:14;6.80;;;4.57;;
18200;SDS011;9226;47.858;9.594;2024-02-16T11:18:42;7.27;;;3.93;;
18200;SDS011;9226;47.858;9.594;2024-02-16T11:21:14;6.70;;;4.33;;
18200;SDS011;9226;47.858;9.594;2024-02-16T11:23:41;9.37;;;4.60;;
18200;SDS011;9226;47.858;9.594;2024-02-16T11:26:10;7.70;;;4.40;;
18200;SDS011;9226;47.858;9.594;2024-02-16T11:28:37;15.03;;;4.83;;
18200;SDS011;9226;47.858;9.594;2024-02-16T11:31:03;10.37;;;5.07;;
18200;SDS011;9226;47.858;9.594;2024-02-16T11:33:30;9.30;;;5.13;;
18200;SDS011;9226;47.858;9.594;2024-02-16T11:35:56;7.43;;;4.90;;
18200;SDS011;9226;47.858;9.594;2024-02-16T11:38:23;10.20;;;4.77;;
18200;SDS011;9226;47.858;9.594;2024-02-16T11:41:22;8.17;;;4.83;;
18200;SDS011;9226;47.858;9.594;2024-02-16T11:43:41;8.90;;;4.10;;
18200;SDS011;9226;47.858;9.594;2024-02-16T11:46:13;8.63;;;3.63;;
18200;SDS011;9226;47.858;9.594;2024-02-16T11:48:39;11.70;;;3.47;;
18200;SDS011;9226;47.858;9.594;2024-02-16T11:51:05;7.73;;;3.60;;
18200;SDS011;9226;47.858;9.594;2024-02-16T11:53:31;6.87;;;3.50;;
18200;SDS011;9226;47.858;9.594;2024-02-16T11:55:57;13.47;;;3.60;;
18200;SDS011;9226;47.858;9.594;2024-02-16T11:58:23;15.50;;;4.20;;
18200;SDS011;9226;47.858;9.594;2024-02-16T12:00:49;9.70;;;3.50;;
18200;SDS011;9226;47.858;9.594;2024-02-16T12:05:52;7.47;;;3.40;;
18200;SDS011;9226;47.858;9.594;2024-02-16T12:08:22;7.30;;;3.63;;
18200;SDS011;9226;47.858;9.594;2024-02-16T12:10:48;7.07;;;3.53;;
18200;SDS011;9226;47.858;9.594;2024-02-16T12:13:19;6.17;;;2.90;;
18200;SDS011;9226;47.858;9.594;2024-02-16T12:15:45;23.80;;;4.40;;
18200;SDS011;9226;47.858;9.594;2024-02-16T12:18:18;7.03;;;3.53;;
18200;SDS011;9226;47.858;9.594;2024-02-16T12:21:00;8.37;;;3.50;;
18200;SDS011;9226;47.858;9.594;2024-02-16T12:23:28;10.87;;;3.50;;
18200;SDS011;9226;47.858;9.594;2024-02-16T12:25:55;6.60;;;3.37;;
18200;SDS011;9226;47.858;9.594;2024-02-16T12:28:24;8.53;;;4.07;;
18200;SDS011;9226;47.858;9.594;2024-02-16T12:30:57;7.67;;;3.40;;
18200;SDS011;9226;47.858;9.594;2024-02-16T12:33:23;8.20;;;3.30;;
18200;SDS011;9226;47.858;9.594;2024-02-16T12:35:49;12.40;;;3.07;;
18200;SDS011;9226;47.858;9.594;2024-02-16T12:38:14;7.60;;;3.07;;
18200;SDS011;9226;47.858;9.594;2024-02-16T12:40:42;5.77;;;3.20;;
18200;SDS011;9226;47.858;9.594;2024-02-16T12:43:08;6.57;;;3.40;;
18200;SDS011;9226;47.858;9.594;2024-02-16T12:45:36;11.30;;;3.27;;
18200;SDS011;9226;47.858;9.594;2024-02-16T12:48:01;8.60;;;3.30;;
18200;SDS011;9226;47.858;9.594;2024-02-16T12:50:27;8.50;;;3.63;;
18200;SDS011;9226;47.858;9.594;2024-02-16T12:52:52;6.47;;;3.63;;
18200;SDS011;9226;47.858;9.594;2024-02-16T12:55:17;4.93;;;2.70;;
18200;SDS011;9226;47.858;9.594;2024-02-16T12:57:42;5.77;;;3.20;;
18200;SDS011;9226;47.858;9.594;2024-02-16T13:00:08;5.87;;;3.27;;
18200;SDS011;9226;47.858;9.594;2024-02-16T13:02:34;10.27;;;3.60;;
18200;SDS011;9226;47.858;9.594;2024-02-16T13:04:59;14.73;;;3.53;;
18200;SDS011;9226;47.858;9.594;2024-02-16T13:07:24;7.77;;;2.93;;
18200;SDS011;9226;47.858;9.594;2024-02-16T13:09:50;5.70;;;3.10;;
18200;SDS011;9226;47.858;9.594;2024-02-16T13:12:16;9.47;;;4.17;;
18200;SDS011;9226;47.858;9.594;2024-02-16T13:14:42;8.17;;;3.33;;
18200;SDS011;9226;47.858;9.594;2024-02-16T13:17:07;7.37;;;3.40;;
18200;SDS011;9226;47.858;9.594;2024-02-16T13:19:33;8.53;;;3.30;;
18200;SDS011;9226;47.858;9.594;2024-02-16T13:21:58;6.27;;;3.17;;
18200;SDS011;9226;47.858;9.594;2024-02-16T13:24:23;8.17;;;3.77;;
18200;SDS011;9226;47.858;9.594;2024-02-16T13:26:49;6.73;;;3.10;;
18200;SDS011;9226;47.858;9.594;2024-02-16T13:29:15;8.70;;;3.30;;
18200;SDS011;9226;47.858;9.594;2024-02-16T13:31:40;6.23;;;3.20;;
18200;SDS011;9226;47.858;9.594;2024-02-16T13:34:07;5.83;;;3.10;;
18200;SDS011;9226;47.858;9.594;2024-02-16T13:36:33;8.40;;;3.97;;
18200;SDS011;9226;47.858;9.594;2024-02-16T13:38:58;7.43;;;3.07;;
18200;SDS011;9226;47.858;9.594;2024-02-16T13:41:24;6.63;;;3.17;;
18200;SDS011;9226;47.858;9.594;2024-02-16T13:43:50;5.57;;;2.80;;
18200;SDS011;9226;47.858;9.594;2024-02-16T13:46:16;7.73;;;3.60;;
18200;SDS011;9226;47.858;9.594;2024-02-16T13:48:42;7.90;;;2.70;;
18200;SDS011;9226;47.858;9.594;2024-02-16T13:51:08;13.87;;;3.13;;
18200;SDS011;9226;47.858;9.594;2024-02-16T13:53:33;5.70;;;2.73;;
18200;SDS011;9226;47.858;9.594;2024-02-16T13:55:58;6.53;;;2.93;;
18200;SDS011;9226;47.858;9.594;2024-02-16T13:58:28;6.10;;;2.90;;
18200;SDS011;9226;47.858;9.594;2024-02-16T14:00:55;6.20;;;3.27;;
18200;SDS011;9226;47.858;9.594;2024-02-16T14:03:20;8.40;;;3.00;;
18200;SDS011;9226;47.858;9.594;2024-02-16T14:05:46;8.83;;;3.37;;
18200;SDS011;9226;47.858;9.594;2024-02-16T14:08:12;6.30;;;3.10;;
18200;SDS011;9226;47.858;9.594;2024-02-16T14:10:37;5.97;;;3.27;;
18200;SDS011;9226;47.858;9.594;2024-02-16T14:13:03;18.20;;;4.10;;
18200;SDS011;9226;47.858;9.594;2024-02-16T14:15:29;8.23;;;3.20;;
18200;SDS011;9226;47.858;9.594;2024-02-16T14:17:54;24.77;;;3.50;;
18200;SDS011;9226;47.858;9.594;2024-02-16T14:20:19;7.17;;;3.00;;
18200;SDS011;9226;47.858;9.594;2024-02-16T14:22:46;5.87;;;3.07;;
18200;SDS011;9226;47.858;9.594;2024-02-16T14:25:12;8.07;;;3.00;;
18200;SDS011;9226;47.858;9.594;2024-02-16T14:27:38;6.80;;;3.47;;
18200;SDS011;9226;47.858;9.594;2024-02-16T14:30:04;6.13;;;2.77;;
18200;SDS011;9226;47.858;9.594;2024-02-16T14:32:30;6.50;;;2.83;;
18200;SDS011;9226;47.858;9.594;2024-02-16T14:34:56;6.70;;;2.97;;
18200;SDS011;9226;47.858;9.594;2024-02-16T14:37:21;7.13;;;2.87;;
18200;SDS011;9226;47.858;9.594;2024-02-16T14:39:47;14.43;;;3.37;;
18200;SDS011;9226;47.858;9.594;2024-02-16T14:42:12;9.10;;;2.87;;
18200;SDS011;9226;47.858;9.594;2024-02-16T14:44:38;7.40;;;2.87;;
18200;SDS011;9226;47.858;9.594;2024-02-16T14:47:03;6.93;;;2.80;;
18200;SDS011;9226;47.858;9.594;2024-02-16T14:49:28;8.77;;;2.70;;